Elysian, Minnesota
Current Conditions -  °F | °C
As of 4:14 AM on Friday 21 Nov 2014 (Local Time) from KACQ Reporting Station
Clear Clear  
Wind Chill: -8°   Ceiling: Unl
Heat Index:   Visibility: 10mi
Dew Point:   Wind: 10mph
Humidity: 79%   Direction: 170°S
Pressure: 30.25"   Gusts: NA
Location:  44.2°N, 93.67°W
Report Text: KACQ 211014Z AUTO 17009KT 10SM CLR M14/M17 A3025 RMK AO2
Loading
Personal Weather Stations






























Interactive Weather Map New forecast layout! Learn more

10-Day Weather Forecast

Advertisements
Track Severe Weather on mobile